Time,TemperatureF,DewpointF,PressureIn,WindDirection,WindDirectionDegrees,WindSpeedMPH,WindSpeedGustMPH,Humidity,HourlyPrecipIn,Conditions,Clouds,dailyrainin,SolarRadiationWatts/m^2,SoftwareType,DateUTC
2013-06-25 00:01:00,72.0,63.0,-100.00,West,272,3.0,9.0,74,0.00,,,0.25,0.000000,,2013-06-25 04:01:00,
2013-06-25 00:10:00,70.0,65.0,-100.00,WNW,300,4.0,6.0,84,0.00,,,0.25,0.000000,,2013-06-25 04:10:00,
2013-06-25 00:43:00,70.0,65.0,-100.00,WNW,300,4.0,6.0,84,0.00,,,0.25,0.000000,,2013-06-25 04:43:00,
2013-06-25 00:52:00,70.0,65.0,-100.00,WNW,300,4.0,6.0,84,0.00,,,0.25,0.000000,,2013-06-25 04:52:00,
2013-06-25 01:01:00,70.0,65.0,-100.00,WNW,300,4.0,6.0,84,0.00,,,0.25,0.000000,,2013-06-25 05:01:00,
2013-06-25 01:10:00,70.0,64.0,-100.00,West,278,4.0,6.0,81,0.00,,,0.25,0.000000,,2013-06-25 05:10:00,
2013-06-25 01:44:00,70.0,64.0,-100.00,West,278,4.0,6.0,81,0.00,,,0.25,0.000000,,2013-06-25 05:44:00,
2013-06-25 01:52:00,70.0,64.0,-100.00,West,278,4.0,6.0,81,0.00,,,0.25,0.000000,,2013-06-25 05:52:00,
2013-06-25 02:01:00,70.0,64.0,-100.00,West,278,4.0,6.0,81,0.00,,,0.25,0.000000,,2013-06-25 06:01:00,
2013-06-25 02:10:00,69.0,64.0,-100.00,WNW,292,4.0,10.0,84,0.00,,,0.25,0.000000,,2013-06-25 06:10:00,
2013-06-25 02:43:00,69.0,64.0,-100.00,WNW,292,4.0,10.0,84,0.00,,,0.25,0.000000,,2013-06-25 06:43:00,
2013-06-25 02:52:00,69.0,64.0,-100.00,WNW,292,4.0,10.0,84,0.00,,,0.25,0.000000,,2013-06-25 06:52:00,
2013-06-25 03:02:00,69.0,64.0,-100.00,WNW,292,4.0,10.0,84,0.00,,,0.25,0.000000,,2013-06-25 07:02:00,
2013-06-25 03:10:00,69.0,65.0,-100.00,WNW,295,4.0,7.0,86,0.00,,,0.25,0.000000,,2013-06-25 07:10:00,
2013-06-25 03:43:00,69.0,65.0,-100.00,WNW,295,4.0,7.0,86,0.00,,,0.25,0.000000,,2013-06-25 07:43:00,
2013-06-25 03:52:00,69.0,65.0,-100.00,WNW,295,4.0,7.0,86,0.00,,,0.25,0.000000,,2013-06-25 07:52:00,
2013-06-25 04:02:00,69.0,65.0,-100.00,WNW,295,4.0,7.0,86,0.00,,,0.25,0.000000,,2013-06-25 08:02:00,
2013-06-25 04:10:00,69.0,65.0,-100.00,West,268,4.0,11.0,86,0.00,,,0.25,0.000000,,2013-06-25 08:10:00,
2013-06-25 04:43:00,69.0,65.0,-100.00,West,268,4.0,11.0,86,0.00,,,0.25,0.000000,,2013-06-25 08:43:00,
2013-06-25 04:53:00,69.0,65.0,-100.00,West,268,4.0,11.0,86,0.00,,,0.25,0.000000,,2013-06-25 08:53:00,
2013-06-25 05:02:00,69.0,65.0,-100.00,West,268,4.0,11.0,86,0.00,,,0.25,0.000000,,2013-06-25 09:02:00,
2013-06-25 05:10:00,68.0,65.0,-100.00,WNW,290,4.0,9.0,90,0.00,,,0.25,0.000000,,2013-06-25 09:10:00,
2013-06-25 05:43:00,68.0,65.0,-100.00,WNW,290,4.0,9.0,90,0.00,,,0.25,0.000000,,2013-06-25 09:43:00,
2013-06-25 05:53:00,68.0,65.0,-100.00,WNW,290,4.0,9.0,90,0.00,,,0.25,0.000000,,2013-06-25 09:53:00,
2013-06-25 06:01:00,68.0,65.0,-100.00,WNW,290,4.0,9.0,90,0.00,,,0.25,0.000000,,2013-06-25 10:01:00,
2013-06-25 06:10:00,68.0,65.0,-100.00,West,275,4.0,7.0,91,0.00,,,0.25,12.000000,,2013-06-25 10:10:00,
2013-06-25 06:43:00,68.0,65.0,-100.00,West,275,4.0,7.0,91,0.00,,,0.25,12.000000,,2013-06-25 10:43:00,
2013-06-25 06:52:00,68.0,65.0,-100.00,West,275,4.0,7.0,91,0.00,,,0.25,12.000000,,2013-06-25 10:52:00,
2013-06-25 07:02:00,68.0,65.0,-100.00,West,275,4.0,7.0,91,0.00,,,0.25,12.000000,,2013-06-25 11:02:00,
2013-06-25 07:10:00,71.0,67.0,-100.00,West,267,6.0,10.0,86,0.00,,,0.25,112.000000,,2013-06-25 11:10:00,
2013-06-25 07:43:00,71.0,67.0,-100.00,West,267,6.0,10.0,86,0.00,,,0.25,112.000000,,2013-06-25 11:43:00,
2013-06-25 07:52:00,71.0,67.0,-100.00,West,267,6.0,10.0,86,0.00,,,0.25,112.000000,,2013-06-25 11:52:00,
2013-06-25 08:02:00,71.0,67.0,-100.00,West,267,6.0,10.0,86,0.00,,,0.25,112.000000,,2013-06-25 12:02:00,
2013-06-25 08:10:00,73.0,67.0,-100.00,West,269,6.0,11.0,82,0.00,,,0.25,265.000000,,2013-06-25 12:10:00,
2013-06-25 08:43:00,73.0,67.0,-100.00,West,269,6.0,11.0,82,0.00,,,0.25,265.000000,,2013-06-25 12:43:00,
2013-06-25 08:55:00,73.0,67.0,-100.00,West,269,6.0,11.0,82,0.00,,,0.25,265.000000,,2013-06-25 12:55:00,
2013-06-25 09:02:00,73.0,67.0,-100.00,West,269,6.0,11.0,82,0.00,,,0.25,265.000000,,2013-06-25 13:02:00,
2013-06-25 09:10:00,76.0,69.0,-100.00,West,272,7.0,13.0,78,0.00,,,0.25,474.000000,,2013-06-25 13:10:00,
2013-06-25 09:43:00,76.0,69.0,-100.00,West,272,7.0,13.0,78,0.00,,,0.25,474.000000,,2013-06-25 13:43:00,
2013-06-25 09:53:00,76.0,69.0,-100.00,West,272,7.0,13.0,78,0.00,,,0.25,474.000000,,2013-06-25 13:53:00,
2013-06-25 10:02:00,76.0,69.0,-100.00,West,272,7.0,13.0,78,0.00,,,0.25,474.000000,,2013-06-25 14:02:00,
2013-06-25 10:10:00,80.0,70.0,-100.00,WSW,256,6.0,11.0,72,0.00,,,0.25,680.000000,,2013-06-25 14:10:00,
2013-06-25 10:43:00,80.0,70.0,-100.00,WSW,256,6.0,11.0,72,0.00,,,0.25,680.000000,,2013-06-25 14:43:00,
2013-06-25 10:53:00,80.0,70.0,-100.00,WSW,256,6.0,11.0,72,0.00,,,0.25,680.000000,,2013-06-25 14:53:00,
2013-06-25 11:02:00,80.0,70.0,-100.00,WSW,256,6.0,11.0,72,0.00,,,0.25,680.000000,,2013-06-25 15:02:00,
2013-06-25 11:10:00,83.0,72.0,-100.00,West,263,6.0,11.0,70,0.00,,,-99.99,833.000000,,2013-06-25 15:10:00,
2013-06-25 11:44:00,83.0,72.0,-100.00,West,263,6.0,11.0,70,0.00,,,-99.99,833.000000,,2013-06-25 15:44:00,
2013-06-25 11:53:00,83.0,72.0,-100.00,West,263,6.0,11.0,70,0.00,,,-99.99,833.000000,,2013-06-25 15:53:00,
2013-06-25 12:03:00,83.0,72.0,-100.00,West,263,6.0,11.0,70,0.00,,,-99.99,833.000000,,2013-06-25 16:03:00,
2013-06-25 12:10:00,84.0,71.0,-100.00,West,261,6.0,12.0,66,0.00,,,0.25,939.000000,,2013-06-25 16:10:00,
2013-06-25 12:44:00,84.0,71.0,-100.00,West,261,6.0,12.0,66,0.00,,,0.25,939.000000,,2013-06-25 16:44:00,
2013-06-25 12:52:00,84.0,71.0,-100.00,West,261,6.0,12.0,66,0.00,,,0.25,939.000000,,2013-06-25 16:52:00,
2013-06-25 13:01:00,84.0,71.0,-100.00,West,261,6.0,12.0,66,0.00,,,0.25,939.000000,,2013-06-25 17:01:00,
2013-06-25 13:10:00,85.0,70.0,-100.00,SW,216,8.0,14.0,61,0.00,,,0.25,1003.000000,,2013-06-25 17:10:00,
2013-06-25 13:44:00,85.0,70.0,-100.00,SW,216,8.0,14.0,61,0.00,,,0.25,1003.000000,,2013-06-25 17:44:00,
2013-06-25 13:53:00,85.0,70.0,-100.00,SW,216,8.0,14.0,61,0.00,,,0.25,1003.000000,,2013-06-25 17:53:00,
2013-06-25 14:02:00,85.0,70.0,-100.00,SW,216,8.0,14.0,61,0.00,,,0.25,1003.000000,,2013-06-25 18:02:00,
2013-06-25 14:10:00,83.0,66.0,-100.00,SW,229,6.0,16.0,56,0.00,,,0.25,814.000000,,2013-06-25 18:10:00,
2013-06-25 14:45:00,83.0,66.0,-100.00,SW,229,6.0,16.0,56,0.00,,,0.25,814.000000,,2013-06-25 18:45:00,
2013-06-25 14:53:00,83.0,66.0,-100.00,SW,229,6.0,16.0,56,0.00,,,0.25,814.000000,,2013-06-25 18:53:00,
2013-06-25 15:01:00,83.0,66.0,-100.00,SW,229,6.0,16.0,56,0.00,,,0.25,814.000000,,2013-06-25 19:01:00,
2013-06-25 15:10:00,85.0,66.0,-100.00,SW,218,6.0,14.0,54,0.00,,,0.25,797.000000,,2013-06-25 19:10:00,
2013-06-25 15:44:00,85.0,66.0,-100.00,SW,218,6.0,14.0,54,0.00,,,0.25,797.000000,,2013-06-25 19:44:00,
2013-06-25 15:54:00,85.0,66.0,-100.00,SW,218,6.0,14.0,54,0.00,,,0.25,797.000000,,2013-06-25 19:54:00,
2013-06-25 16:02:00,85.0,66.0,-100.00,SW,218,6.0,14.0,54,0.00,,,0.25,797.000000,,2013-06-25 20:02:00,
2013-06-25 16:10:00,72.0,68.0,-100.00,SW,221,3.0,19.0,87,0.42,,,0.67,96.000000,,2013-06-25 20:10:00,
2013-06-25 16:52:00,72.0,68.0,-100.00,SW,221,3.0,19.0,87,0.42,,,0.67,96.000000,,2013-06-25 20:52:00,
2013-06-25 17:02:00,72.0,68.0,-100.00,SW,221,3.0,19.0,87,0.42,,,0.67,96.000000,,2013-06-25 21:02:00,
2013-06-25 17:10:00,81.0,74.0,-100.00,SW,229,5.0,9.0,79,0.00,,,0.67,474.000000,,2013-06-25 21:10:00,
2013-06-25 17:43:00,81.0,74.0,-100.00,SW,229,5.0,9.0,79,0.00,,,0.67,474.000000,,2013-06-25 21:43:00,
2013-06-25 17:53:00,81.0,74.0,-100.00,SW,229,5.0,9.0,79,0.00,,,0.67,474.000000,,2013-06-25 21:53:00,
2013-06-25 18:01:00,81.0,74.0,-100.00,SW,229,5.0,9.0,79,0.00,,,0.67,474.000000,,2013-06-25 22:01:00,
2013-06-25 18:10:00,80.0,68.0,-100.00,West,261,7.0,18.0,68,0.00,,,0.47,479.000000,,2013-06-25 22:10:00,
2013-06-25 18:42:00,80.0,68.0,-100.00,West,261,7.0,18.0,68,0.00,,,0.47,479.000000,,2013-06-25 22:42:00,
2013-06-25 18:52:00,80.0,68.0,-100.00,West,261,7.0,18.0,68,0.00,,,0.47,479.000000,,2013-06-25 22:52:00,
2013-06-25 19:01:00,80.0,68.0,-100.00,West,261,7.0,18.0,68,0.00,,,0.47,479.000000,,2013-06-25 23:01:00,
2013-06-25 19:10:00,78.0,64.0,-100.00,SW,233,5.0,16.0,62,0.00,,,0.42,214.000000,,2013-06-25 23:10:00,
2013-06-25 19:44:00,78.0,64.0,-100.00,SW,233,5.0,16.0,62,0.00,,,0.42,214.000000,,2013-06-25 23:44:00,
2013-06-25 19:52:00,78.0,64.0,-100.00,SW,233,5.0,16.0,62,0.00,,,0.42,214.000000,,2013-06-25 23:52:00,
2013-06-25 20:02:00,78.0,64.0,-100.00,SW,233,5.0,16.0,62,0.00,,,0.42,214.000000,,2013-06-26 00:02:00,
2013-06-25 21:10:00,74.0,65.0,-100.00,SW,233,3.0,7.0,74,-99.99,,,0.42,5.000000,,2013-06-26 01:10:00,
2013-06-25 21:44:00,74.0,65.0,-100.00,SW,233,3.0,7.0,74,-99.99,,,0.42,5.000000,,2013-06-26 01:44:00,
2013-06-25 21:53:00,74.0,65.0,-100.00,SW,233,3.0,7.0,74,-99.99,,,0.42,5.000000,,2013-06-26 01:53:00,
2013-06-25 22:02:00,74.0,65.0,-100.00,SW,233,3.0,7.0,74,-99.99,,,0.42,5.000000,,2013-06-26 02:02:00,
2013-06-25 22:10:00,73.0,66.0,-100.00,SW,230,3.0,7.0,78,0.06,,,0.48,0.000000,,2013-06-26 02:10:00,
2013-06-25 22:43:00,73.0,66.0,-100.00,SW,230,3.0,7.0,78,0.06,,,0.48,0.000000,,2013-06-26 02:43:00,
2013-06-25 22:53:00,73.0,66.0,-100.00,SW,230,3.0,7.0,78,0.06,,,0.48,0.000000,,2013-06-26 02:53:00,
2013-06-25 23:02:00,73.0,66.0,-100.00,SW,230,3.0,7.0,78,0.06,,,0.48,0.000000,,2013-06-26 03:02:00,
2013-06-25 23:10:00,71.0,68.0,-100.00,NNW,331,3.0,11.0,91,0.04,,,0.52,0.000000,,2013-06-26 03:10:00,
2013-06-25 23:33:00,71.0,68.0,-100.00,NNW,331,3.0,11.0,91,0.04,,,0.52,0.000000,,2013-06-26 03:33:00,
2013-06-25 23:43:00,71.0,68.0,-100.00,NNW,331,3.0,11.0,91,0.04,,,0.52,0.000000,,2013-06-26 03:43:00,
2013-06-25 23:52:00,71.0,68.0,-100.00,NNW,331,3.0,11.0,91,0.04,,,0.52,0.000000,,2013-06-26 03:52:00,